sensor_id;sensor_type;location;lat;lon;timestamp;pressure;altitude;pressure_sealevel;temperature;humidity
74680;BME280;63211;48.548;2.704;2024-01-27T00:00:47;102815.09;;;19.15;45.96
74680;BME280;63211;48.548;2.704;2024-01-27T00:03:14;102814.25;;;19.15;45.98
74680;BME280;63211;48.548;2.704;2024-01-27T00:05:40;102804.06;;;19.09;46.00
74680;BME280;63211;48.548;2.704;2024-01-27T00:08:08;102818.66;;;19.16;46.22
74680;BME280;63211;48.548;2.704;2024-01-27T00:10:35;102818.84;;;19.14;46.27
74680;BME280;63211;48.548;2.704;2024-01-27T00:13:01;102822.44;;;19.15;46.36
74680;BME280;63211;48.548;2.704;2024-01-27T00:15:28;102789.25;;;18.95;46.39
74680;BME280;63211;48.548;2.704;2024-01-27T00:17:54;102814.06;;;19.16;46.53
74680;BME280;63211;48.548;2.704;2024-01-27T00:20:21;102817.63;;;19.17;46.42
74680;BME280;63211;48.548;2.704;2024-01-27T00:22:47;102813.22;;;19.16;46.51
74680;BME280;63211;48.548;2.704;2024-01-27T00:25:15;102819.88;;;19.13;46.42
74680;BME280;63211;48.548;2.704;2024-01-27T00:27:42;102819.69;;;19.15;46.34
74680;BME280;63211;48.548;2.704;2024-01-27T00:30:09;102808.66;;;19.08;46.41
74680;BME280;63211;48.548;2.704;2024-01-27T00:32:36;102809.16;;;19.12;46.41
74680;BME280;63211;48.548;2.704;2024-01-27T00:35:04;102820.25;;;19.10;46.43
74680;BME280;63211;48.548;2.704;2024-01-27T00:37:30;102822.13;;;19.10;46.23
74680;BME280;63211;48.548;2.704;2024-01-27T00:39:57;102825.22;;;19.07;46.45
74680;BME280;63211;48.548;2.704;2024-01-27T00:42:25;102824.19;;;19.08;46.44
74680;BME280;63211;48.548;2.704;2024-01-27T00:44:52;102830.50;;;19.08;46.27
74680;BME280;63211;48.548;2.704;2024-01-27T00:47:18;102817.06;;;18.99;46.18
74680;BME280;63211;48.548;2.704;2024-01-27T00:49:45;102821.28;;;19.09;46.55
74680;BME280;63211;48.548;2.704;2024-01-27T00:52:11;102815.81;;;19.09;46.59
74680;BME280;63211;48.548;2.704;2024-01-27T00:54:38;102795.03;;;19.00;46.72
74680;BME280;63211;48.548;2.704;2024-01-27T00:57:04;102804.91;;;19.09;46.78
74680;BME280;63211;48.548;2.704;2024-01-27T00:59:32;102806.59;;;19.10;46.72
74680;BME280;63211;48.548;2.704;2024-01-27T01:01:59;102812.91;;;19.11;46.81
74680;BME280;63211;48.548;2.704;2024-01-27T01:04:25;102811.22;;;19.10;46.80
74680;BME280;63211;48.548;2.704;2024-01-27T01:06:52;102811.22;;;19.10;46.60
74680;BME280;63211;48.548;2.704;2024-01-27T01:09:18;102827.59;;;19.10;46.61
74680;BME280;63211;48.548;2.704;2024-01-27T01:11:44;102814.31;;;19.07;46.56
74680;BME280;63211;48.548;2.704;2024-01-27T01:14:11;102817.88;;;19.07;46.22
74680;BME280;63211;48.548;2.704;2024-01-27T01:16:39;102818.91;;;19.06;46.53
74680;BME280;63211;48.548;2.704;2024-01-27T01:19:06;102781.31;;;18.85;46.20
74680;BME280;63211;48.548;2.704;2024-01-27T01:21:33;102804.94;;;19.01;46.54
74680;BME280;63211;48.548;2.704;2024-01-27T01:24:00;102807.84;;;19.00;46.61
74680;BME280;63211;48.548;2.704;2024-01-27T01:26:27;102813.13;;;19.01;46.44
74680;BME280;63211;48.548;2.704;2024-01-27T01:28:54;102811.44;;;19.00;46.54
74680;BME280;63211;48.548;2.704;2024-01-27T01:31:20;102803.22;;;19.00;46.45
74680;BME280;63211;48.548;2.704;2024-01-27T01:33:48;102784.84;;;18.94;46.51
74680;BME280;63211;48.548;2.704;2024-01-27T01:36:15;102799.47;;;19.01;46.59
74680;BME280;63211;48.548;2.704;2024-01-27T01:38:41;102803.06;;;19.02;46.78
74680;BME280;63211;48.548;2.704;2024-01-27T01:41:08;102800.16;;;19.03;46.70
74680;BME280;63211;48.548;2.704;2024-01-27T01:43:34;102793.84;;;19.03;46.61
74680;BME280;63211;48.548;2.704;2024-01-27T01:46:01;102799.31;;;19.03;46.70
74680;BME280;63211;48.548;2.704;2024-01-27T01:48:28;102799.97;;;19.05;46.74
74680;BME280;63211;48.548;2.704;2024-01-27T01:50:57;102801.84;;;19.04;46.60
74680;BME280;63211;48.548;2.704;2024-01-27T01:53:25;102799.31;;;19.03;46.94
74680;BME280;63211;48.548;2.704;2024-01-27T01:55:52;102781.41;;;19.00;46.90
74680;BME280;63211;48.548;2.704;2024-01-27T01:58:19;102787.88;;;18.99;46.56
74680;BME280;63211;48.548;2.704;2024-01-27T02:00:45;102787.88;;;18.99;46.48
74680;BME280;63211;48.548;2.704;2024-01-27T02:03:12;102787.03;;;18.99;46.52
74680;BME280;63211;48.548;2.704;2024-01-27T02:05:39;102790.78;;;18.98;46.38
74680;BME280;63211;48.548;2.704;2024-01-27T02:08:07;102792.84;;;18.96;46.42
74680;BME280;63211;48.548;2.704;2024-01-27T02:10:34;102792.84;;;18.96;46.50
74680;BME280;63211;48.548;2.704;2024-01-27T02:13:03;102787.75;;;18.93;46.54
74680;BME280;63211;48.548;2.704;2024-01-27T02:15:31;102784.16;;;18.92;46.44
74680;BME280;63211;48.548;2.704;2024-01-27T02:17:58;102781.25;;;18.94;46.60
74680;BME280;63211;48.548;2.704;2024-01-27T02:20:24;102796.59;;;18.95;46.76
74680;BME280;63211;48.548;2.704;2024-01-27T02:22:51;102785.41;;;18.90;46.80
74680;BME280;63211;48.548;2.704;2024-01-27T02:25:19;102795.56;;;18.96;46.93
74680;BME280;63211;48.548;2.704;2024-01-27T02:27:45;102788.25;;;18.96;46.87
74680;BME280;63211;48.548;2.704;2024-01-27T02:30:12;102790.13;;;18.96;46.61
74680;BME280;63211;48.548;2.704;2024-01-27T02:32:38;102784.97;;;19.01;46.18
74680;BME280;63211;48.548;2.704;2024-01-27T02:35:05;102785.81;;;19.01;46.68
74680;BME280;63211;48.548;2.704;2024-01-27T02:37:33;102788.72;;;19.00;46.51
74680;BME280;63211;48.548;2.704;2024-01-27T02:39:59;102786.31;;;19.05;46.88
74680;BME280;63211;48.548;2.704;2024-01-27T02:42:27;102782.88;;;19.11;46.93
74680;BME280;63211;48.548;2.704;2024-01-27T02:44:54;102774.06;;;19.01;46.76
74680;BME280;63211;48.548;2.704;2024-01-27T02:47:20;102775.25;;;18.98;46.73
74680;BME280;63211;48.548;2.704;2024-01-27T02:49:47;102777.81;;;19.00;46.63
74680;BME280;63211;48.548;2.704;2024-01-27T02:52:13;102772.72;;;18.97;46.40
74680;BME280;63211;48.548;2.704;2024-01-27T02:54:40;102784.47;;;18.97;46.67
74680;BME280;63211;48.548;2.704;2024-01-27T02:57:07;102776.19;;;18.91;46.70
74680;BME280;63211;48.548;2.704;2024-01-27T02:59:35;102772.72;;;18.97;46.62
74680;BME280;63211;48.548;2.704;2024-01-27T03:02:01;102770.84;;;18.97;46.04
74680;BME280;63211;48.548;2.704;2024-01-27T03:04:28;102772.72;;;18.97;45.93
74680;BME280;63211;48.548;2.704;2024-01-27T03:06:54;102775.25;;;18.98;45.93
74680;BME280;63211;48.548;2.704;2024-01-27T03:09:21;102755.84;;;18.93;45.46
74680;BME280;63211;48.548;2.704;2024-01-27T03:11:47;102756.34;;;18.97;45.43
74680;BME280;63211;48.548;2.704;2024-01-27T03:14:14;102760.59;;;18.99;45.52
74680;BME280;63211;48.548;2.704;2024-01-27T03:16:43;102755.31;;;18.98;45.64
74680;BME280;63211;48.548;2.704;2024-01-27T03:19:10;102755.13;;;18.99;45.96
74680;BME280;63211;48.548;2.704;2024-01-27T03:21:36;102746.16;;;18.91;46.01
74680;BME280;63211;48.548;2.704;2024-01-27T03:24:04;102761.63;;;18.98;45.98
74680;BME280;63211;48.548;2.704;2024-01-27T03:26:30;102759.91;;;18.97;45.80
74680;BME280;63211;48.548;2.704;2024-01-27T03:28:57;102764.53;;;18.97;45.93
74680;BME280;63211;48.548;2.704;2024-01-27T03:31:30;102762.81;;;18.96;46.15
74680;BME280;63211;48.548;2.704;2024-01-27T03:33:57;102766.56;;;18.95;45.87
74680;BME280;63211;48.548;2.704;2024-01-27T03:36:24;102766.56;;;18.95;46.13
74680;BME280;63211;48.548;2.704;2024-01-27T03:38:51;102762.53;;;18.91;46.18
74680;BME280;63211;48.548;2.704;2024-01-27T03:41:17;102758.94;;;18.90;45.93
74680;BME280;63211;48.548;2.704;2024-01-27T03:43:44;102756.00;;;18.92;45.71
74680;BME280;63211;48.548;2.704;2024-01-27T03:46:10;102764.19;;;18.92;45.60
74680;BME280;63211;48.548;2.704;2024-01-27T03:48:37;102755.38;;;18.90;45.63
74680;BME280;63211;48.548;2.704;2024-01-27T03:51:05;102757.94;;;18.91;45.35
74680;BME280;63211;48.548;2.704;2024-01-27T03:53:32;102763.19;;;18.93;45.45
74680;BME280;63211;48.548;2.704;2024-01-27T03:55:58;102757.72;;;18.93;45.14
74680;BME280;63211;48.548;2.704;2024-01-27T03:58:27;102754.13;;;18.92;45.04
74680;BME280;63211;48.548;2.704;2024-01-27T04:00:54;102756.69;;;18.94;44.72
74680;BME280;63211;48.548;2.704;2024-01-27T04:03:21;102767.59;;;18.94;45.39
74680;BME280;63211;48.548;2.704;2024-01-27T04:05:47;102758.56;;;18.93;45.54
74680;BME280;63211;48.548;2.704;2024-01-27T04:08:15;102759.41;;;18.94;45.70
74680;BME280;63211;48.548;2.704;2024-01-27T04:10:42;102756.69;;;18.94;45.62
74680;BME280;63211;48.548;2.704;2024-01-27T04:13:08;102742.59;;;18.82;45.51
74680;BME280;63211;48.548;2.704;2024-01-27T04:15:35;102760.66;;;18.91;45.74
74680;BME280;63211;48.548;2.704;2024-01-27T04:18:04;102752.81;;;18.88;45.63
74680;BME280;63211;48.548;2.704;2024-01-27T04:20:31;102755.72;;;18.86;45.62
74680;BME280;63211;48.548;2.704;2024-01-27T04:22:57;102756.56;;;18.87;45.58
74680;BME280;63211;48.548;2.704;2024-01-27T04:25:25;102753.16;;;18.85;45.38
74680;BME280;63211;48.548;2.704;2024-01-27T04:27:52;102756.75;;;18.85;45.59
74680;BME280;63211;48.548;2.704;2024-01-27T04:30:19;102749.78;;;18.83;45.63
74680;BME280;63211;48.548;2.704;2024-01-27T04:32:46;102754.03;;;18.85;45.10
74680;BME280;63211;48.548;2.704;2024-01-27T04:35:14;102753.00;;;18.86;45.10
74680;BME280;63211;48.548;2.704;2024-01-27T04:37:41;102747.53;;;18.86;44.66
74680;BME280;63211;48.548;2.704;2024-01-27T04:40:10;102753.66;;;18.88;44.56
74680;BME280;63211;48.548;2.704;2024-01-27T04:42:38;102757.25;;;18.89;44.66
74680;BME280;63211;48.548;2.704;2024-01-27T04:45:07;102765.44;;;18.89;44.86
74680;BME280;63211;48.548;2.704;2024-01-27T04:47:34;102768.16;;;18.89;45.11
74680;BME280;63211;48.548;2.704;2024-01-27T04:50:00;102767.31;;;18.88;45.08
74680;BME280;63211;48.548;2.704;2024-01-27T04:52:28;102770.22;;;18.87;45.15
74680;BME280;63211;48.548;2.704;2024-01-27T04:54:55;102766.66;;;18.86;45.26
74680;BME280;63211;48.548;2.704;2024-01-27T04:57:21;102775.69;;;18.87;45.19
74680;BME280;63211;48.548;2.704;2024-01-27T04:59:49;102770.41;;;18.85;45.27
74680;BME280;63211;48.548;2.704;2024-01-27T05:02:17;102774.16;;;18.84;45.38
74680;BME280;63211;48.548;2.704;2024-01-27T05:04:44;102766.16;;;18.83;45.23
74680;BME280;63211;48.548;2.704;2024-01-27T05:07:10;102764.44;;;18.82;45.26
74680;BME280;63211;48.548;2.704;2024-01-27T05:09:37;102760.88;;;18.81;45.07
74680;BME280;63211;48.548;2.704;2024-01-27T05:12:04;102760.88;;;18.81;45.17
74680;BME280;63211;48.548;2.704;2024-01-27T05:14:31;102762.91;;;18.79;45.05
74680;BME280;63211;48.548;2.704;2024-01-27T05:16:59;102766.66;;;18.78;44.72
74680;BME280;63211;48.548;2.704;2024-01-27T05:19:26;102773.16;;;18.77;44.41
74680;BME280;63211;48.548;2.704;2024-01-27T05:21:52;102777.25;;;18.81;44.94
74680;BME280;63211;48.548;2.704;2024-01-27T05:24:19;102772.81;;;18.80;45.08
74680;BME280;63211;48.548;2.704;2024-01-27T05:26:45;102769.72;;;18.83;44.59
74680;BME280;63211;48.548;2.704;2024-01-27T05:29:12;102768.88;;;18.83;44.57
74680;BME280;63211;48.548;2.704;2024-01-27T05:31:38;102775.00;;;18.85;44.78
74680;BME280;63211;48.548;2.704;2024-01-27T05:34:09;102775.19;;;18.83;44.83
74680;BME280;63211;48.548;2.704;2024-01-27T05:36:36;102776.03;;;18.84;44.85
74680;BME280;63211;48.548;2.704;2024-01-27T05:39:03;102768.88;;;18.83;44.89
74680;BME280;63211;48.548;2.704;2024-01-27T05:41:30;102757.13;;;18.74;45.13
74680;BME280;63211;48.548;2.704;2024-01-27T05:43:56;102762.91;;;18.79;45.21
74680;BME280;63211;48.548;2.704;2024-01-27T05:46:23;102760.38;;;18.78;45.03
74680;BME280;63211;48.548;2.704;2024-01-27T05:48:50;102766.00;;;18.76;45.12
74680;BME280;63211;48.548;2.704;2024-01-27T05:51:21;102744.22;;;18.68;45.02
74680;BME280;63211;48.548;2.704;2024-01-27T05:53:49;102754.47;;;18.66;44.86
74680;BME280;63211;48.548;2.704;2024-01-27T05:56:15;102774.34;;;18.75;44.72
74680;BME280;63211;48.548;2.704;2024-01-27T05:58:42;102759.19;;;18.72;44.59
74680;BME280;63211;48.548;2.704;2024-01-27T06:01:09;102760.72;;;18.75;44.53
74680;BME280;63211;48.548;2.704;2024-01-27T06:03:36;102763.44;;;18.75;44.66
74680;BME280;63211;48.548;2.704;2024-01-27T06:06:02;102762.41;;;18.76;44.24
74680;BME280;63211;48.548;2.704;2024-01-27T06:08:30;102773.16;;;18.77;44.32
74680;BME280;63211;48.548;2.704;2024-01-27T06:10:57;102765.31;;;18.74;44.06
74680;BME280;63211;48.548;2.704;2024-01-27T06:13:23;102773.16;;;18.77;44.23
74680;BME280;63211;48.548;2.704;2024-01-27T06:15:50;102774.00;;;18.78;44.57
74680;BME280;63211;48.548;2.704;2024-01-27T06:18:17;102772.66;;;18.74;44.59
74680;BME280;63211;48.548;2.704;2024-01-27T06:20:43;102772.47;;;18.75;44.66
74680;BME280;63211;48.548;2.704;2024-01-27T06:23:10;102778.78;;;18.76;44.54
74680;BME280;63211;48.548;2.704;2024-01-27T06:25:38;102777.09;;;18.75;44.74
74680;BME280;63211;48.548;2.704;2024-01-27T06:28:05;102753.44;;;18.67;44.48
74680;BME280;63211;48.548;2.704;2024-01-27T06:30:32;102764.00;;;18.70;44.78
74680;BME280;63211;48.548;2.704;2024-01-27T06:32:58;102759.59;;;18.61;44.61
74680;BME280;63211;48.548;2.704;2024-01-27T06:35:25;102772.19;;;18.70;44.47
74680;BME280;63211;48.548;2.704;2024-01-27T06:37:51;102778.00;;;18.67;44.66
74680;BME280;63211;48.548;2.704;2024-01-27T06:40:18;102784.13;;;18.69;44.62
74680;BME280;63211;48.548;2.704;2024-01-27T06:42:46;102785.16;;;18.68;44.28
74680;BME280;63211;48.548;2.704;2024-01-27T06:45:13;102781.75;;;18.66;44.52
74680;BME280;63211;48.548;2.704;2024-01-27T06:47:39;102786.34;;;18.66;44.53
74680;BME280;63211;48.548;2.704;2024-01-27T06:50:07;102768.28;;;18.65;44.32
74680;BME280;63211;48.548;2.704;2024-01-27T06:52:33;102779.53;;;18.70;44.23
74680;BME280;63211;48.548;2.704;2024-01-27T06:55:00;102782.03;;;18.71;44.06
74680;BME280;63211;48.548;2.704;2024-01-27T06:57:27;102782.91;;;18.72;43.99
74680;BME280;63211;48.548;2.704;2024-01-27T06:59:55;102796.53;;;18.72;44.08
74680;BME280;63211;48.548;2.704;2024-01-27T07:02:22;102796.53;;;18.72;44.28
74680;BME280;63211;48.548;2.704;2024-01-27T07:04:49;102760.31;;;18.47;44.27
74680;BME280;63211;48.548;2.704;2024-01-27T07:07:16;102801.16;;;18.71;44.56
74680;BME280;63211;48.548;2.704;2024-01-27T07:09:42;102792.31;;;18.69;44.40
74680;BME280;63211;48.548;2.704;2024-01-27T07:12:09;102790.63;;;18.68;44.40
74680;BME280;63211;48.548;2.704;2024-01-27T07:14:35;102767.09;;;18.59;44.32
74680;BME280;63211;48.548;2.704;2024-01-27T07:17:04;102790.97;;;18.65;44.64
74680;BME280;63211;48.548;2.704;2024-01-27T07:19:30;102777.31;;;18.57;44.53
74680;BME280;63211;48.548;2.704;2024-01-27T07:21:57;102771.19;;;18.55;44.39
74680;BME280;63211;48.548;2.704;2024-01-27T07:24:24;102776.81;;;18.62;44.27
74680;BME280;63211;48.548;2.704;2024-01-27T07:26:50;102784.16;;;18.61;44.43
74680;BME280;63211;48.548;2.704;2024-01-27T07:29:17;102772.38;;;18.61;44.18
74680;BME280;63211;48.548;2.704;2024-01-27T07:31:43;102768.63;;;18.62;44.15
74680;BME280;63211;48.548;2.704;2024-01-27T07:34:11;102764.03;;;18.62;44.16
74680;BME280;63211;48.548;2.704;2024-01-27T07:36:38;102752.09;;;18.63;43.84
74680;BME280;63211;48.548;2.704;2024-01-27T07:39:05;102767.44;;;18.64;43.84
74680;BME280;63211;48.548;2.704;2024-01-27T07:41:31;102773.75;;;18.65;44.08
74680;BME280;63211;48.548;2.704;2024-01-27T07:44:07;102775.44;;;18.66;44.01
74680;BME280;63211;48.548;2.704;2024-01-27T07:46:33;102774.59;;;18.65;44.13
74680;BME280;63211;48.548;2.704;2024-01-27T07:49:00;102761.66;;;18.59;44.23
74680;BME280;63211;48.548;2.704;2024-01-27T07:51:29;102769.31;;;18.64;44.22
74680;BME280;63211;48.548;2.704;2024-01-27T07:53:56;102708.25;;;18.26;44.03
74680;BME280;63211;48.548;2.704;2024-01-27T07:56:22;102611.81;;;17.63;44.12
74680;BME280;63211;48.548;2.704;2024-01-27T07:58:49;102781.41;;;18.61;44.01
74680;BME280;63211;48.548;2.704;2024-01-27T08:01:15;102779.72;;;18.60;44.10
74680;BME280;63211;48.548;2.704;2024-01-27T08:03:42;102778.16;;;18.58;44.32
74680;BME280;63211;48.548;2.704;2024-01-27T08:06:15;102779.00;;;18.58;44.22
74680;BME280;63211;48.548;2.704;2024-01-27T08:08:45;102778.16;;;18.58;44.45
74680;BME280;63211;48.548;2.704;2024-01-27T08:11:12;102768.78;;;18.52;44.28
74680;BME280;63211;48.548;2.704;2024-01-27T08:13:40;102781.22;;;18.54;43.68
74680;BME280;63211;48.548;2.704;2024-01-27T08:16:06;102755.06;;;18.37;43.99
74680;BME280;63211;48.548;2.704;2024-01-27T08:18:35;102776.47;;;18.57;43.57
74680;BME280;63211;48.548;2.704;2024-01-27T08:21:02;102768.28;;;18.57;43.90
74680;BME280;63211;48.548;2.704;2024-01-27T08:23:29;102763.84;;;18.55;43.57
74680;BME280;63211;48.548;2.704;2024-01-27T08:25:57;102769.84;;;18.59;43.74
74680;BME280;63211;48.548;2.704;2024-01-27T08:28:24;102765.22;;;18.60;43.66
74680;BME280;63211;48.548;2.704;2024-01-27T08:30:50;102770.69;;;18.60;43.53
74680;BME280;63211;48.548;2.704;2024-01-27T08:33:17;102767.09;;;18.59;43.58
74680;BME280;63211;48.548;2.704;2024-01-27T08:35:46;102660.97;;;17.94;43.99
74680;BME280;63211;48.548;2.704;2024-01-27T08:38:12;102764.38;;;18.59;43.89
74680;BME280;63211;48.548;2.704;2024-01-27T08:40:39;102762.63;;;18.58;43.87
74680;BME280;63211;48.548;2.704;2024-01-27T08:43:07;102767.41;;;18.56;44.01
74680;BME280;63211;48.548;2.704;2024-01-27T08:45:35;102774.75;;;18.55;44.03
74680;BME280;63211;48.548;2.704;2024-01-27T08:48:02;102774.94;;;18.54;43.89
74680;BME280;63211;48.548;2.704;2024-01-27T08:50:29;102770.50;;;18.53;43.86
74680;BME280;63211;48.548;2.704;2024-01-27T08:52:55;102775.09;;;18.52;43.82
74680;BME280;63211;48.548;2.704;2024-01-27T08:55:22;102784.31;;;18.51;43.50
74680;BME280;63211;48.548;2.704;2024-01-27T08:57:49;102784.31;;;18.51;43.71
74680;BME280;63211;48.548;2.704;2024-01-27T09:00:18;102781.41;;;18.53;44.20
74680;BME280;63211;48.548;2.704;2024-01-27T09:02:44;102722.06;;;18.16;44.08
74680;BME280;63211;48.548;2.704;2024-01-27T09:05:12;102780.38;;;18.54;44.27
74680;BME280;63211;48.548;2.704;2024-01-27T09:07:39;102785.66;;;18.55;44.34
74680;BME280;63211;48.548;2.704;2024-01-27T09:10:06;102776.63;;;18.63;45.04
74680;BME280;63211;48.548;2.704;2024-01-27T09:12:33;102769.56;;;18.85;44.62
74680;BME280;63211;48.548;2.704;2024-01-27T09:15:00;102736.06;;;18.60;44.34
74680;BME280;63211;48.548;2.704;2024-01-27T09:17:28;102772.81;;;18.80;44.32
74680;BME280;63211;48.548;2.704;2024-01-27T09:19:54;102770.94;;;18.81;43.96
74680;BME280;63211;48.548;2.704;2024-01-27T09:22:21;102773.47;;;18.82;44.11
74680;BME280;63211;48.548;2.704;2024-01-27T09:24:47;102755.59;;;18.72;43.67
74680;BME280;63211;48.548;2.704;2024-01-27T09:27:14;102759.50;;;18.77;43.90
74680;BME280;63211;48.548;2.704;2024-01-27T09:29:41;102767.00;;;18.83;43.69
74680;BME280;63211;48.548;2.704;2024-01-27T09:32:07;102749.44;;;18.78;43.74
74680;BME280;63211;48.548;2.704;2024-01-27T09:34:35;102752.00;;;18.79;43.83
74680;BME280;63211;48.548;2.704;2024-01-27T09:37:02;102743.31;;;18.76;43.94
74680;BME280;63211;48.548;2.704;2024-01-27T09:39:28;102745.50;;;18.80;43.36
74680;BME280;63211;48.548;2.704;2024-01-27T09:41:55;102740.41;;;18.77;43.61
74680;BME280;63211;48.548;2.704;2024-01-27T09:44:23;102754.69;;;18.87;43.18
74680;BME280;63211;48.548;2.704;2024-01-27T09:46:53;102751.41;;;18.92;43.28
74680;BME280;63211;48.548;2.704;2024-01-27T09:49:20;102748.03;;;18.90;43.56
74680;BME280;63211;48.548;2.704;2024-01-27T09:51:48;102754.63;;;18.96;43.83
74680;BME280;63211;48.548;2.704;2024-01-27T09:54:14;102748.69;;;18.92;43.90
74680;BME280;63211;48.548;2.704;2024-01-27T09:56:43;102748.56;;;18.85;43.74
74680;BME280;63211;48.548;2.704;2024-01-27T09:59:12;102737.66;;;18.85;44.16
74680;BME280;63211;48.548;2.704;2024-01-27T10:01:40;102730.69;;;18.75;44.09
74680;BME280;63211;48.548;2.704;2024-01-27T10:04:08;102728.63;;;18.77;43.71
74680;BME280;63211;48.548;2.704;2024-01-27T10:06:35;102734.59;;;18.80;43.96
74680;BME280;63211;48.548;2.704;2024-01-27T10:09:02;102735.63;;;18.79;44.69
74680;BME280;63211;48.548;2.704;2024-01-27T10:11:30;102732.22;;;18.77;44.64
74680;BME280;63211;48.548;2.704;2024-01-27T10:13:58;102730.88;;;18.73;44.27
74680;BME280;63211;48.548;2.704;2024-01-27T10:16:26;102735.31;;;18.74;44.89
74680;BME280;63211;48.548;2.704;2024-01-27T10:19:00;102737.75;;;18.69;44.16
74680;BME280;63211;48.548;2.704;2024-01-27T10:21:27;102734.88;;;18.63;43.95
74680;BME280;63211;48.548;2.704;2024-01-27T10:23:53;102738.22;;;18.73;43.54
74680;BME280;63211;48.548;2.704;2024-01-27T10:26:21;102740.94;;;18.73;43.82
74680;BME280;63211;48.548;2.704;2024-01-27T10:28:54;102736.41;;;18.65;43.40
74680;BME280;63211;48.548;2.704;2024-01-27T10:31:26;102748.94;;;18.74;43.14
74680;BME280;63211;48.548;2.704;2024-01-27T10:33:53;102753.56;;;18.74;43.22
74680;BME280;63211;48.548;2.704;2024-01-27T10:36:19;102748.94;;;18.74;43.26
74680;BME280;63211;48.548;2.704;2024-01-27T10:38:46;102743.66;;;18.73;43.02
74680;BME280;63211;48.548;2.704;2024-01-27T10:41:19;102736.75;;;18.62;43.41
74680;BME280;63211;48.548;2.704;2024-01-27T10:43:50;102766.16;;;18.75;43.29
74680;BME280;63211;48.548;2.704;2024-01-27T10:46:19;102754.59;;;18.73;43.80
74680;BME280;63211;48.548;2.704;2024-01-27T10:48:50;102769.06;;;18.73;43.51
74680;BME280;63211;48.548;2.704;2024-01-27T10:51:18;102767.38;;;18.72;43.26
74680;BME280;63211;48.548;2.704;2024-01-27T10:53:49;102763.31;;;18.68;43.34
74680;BME280;63211;48.548;2.704;2024-01-27T10:56:18;102768.41;;;18.71;43.33
74680;BME280;63211;48.548;2.704;2024-01-27T10:58:45;102754.47;;;18.66;43.23
74680;BME280;63211;48.548;2.704;2024-01-27T11:01:16;102753.44;;;18.67;43.28
74680;BME280;63211;48.548;2.704;2024-01-27T11:03:48;102764.19;;;18.69;43.63
74680;BME280;63211;48.548;2.704;2024-01-27T11:06:18;102751.56;;;18.68;43.50
74680;BME280;63211;48.548;2.704;2024-01-27T11:08:47;102751.75;;;18.66;42.78
74680;BME280;63211;48.548;2.704;2024-01-27T11:11:15;102748.16;;;18.66;43.30
74680;BME280;63211;48.548;2.704;2024-01-27T11:13:42;102736.56;;;18.64;42.93
74680;BME280;63211;48.548;2.704;2024-01-27T11:16:16;102738.94;;;18.67;43.23
74680;BME280;63211;48.548;2.704;2024-01-27T11:18:43;102716.97;;;18.60;43.08
74680;BME280;63211;48.548;2.704;2024-01-27T11:21:13;102722.56;;;18.67;43.39
74680;BME280;63211;48.548;2.704;2024-01-27T11:23:40;102724.09;;;18.69;43.10
74680;BME280;63211;48.548;2.704;2024-01-27T11:26:07;102684.63;;;18.49;43.03
74680;BME280;63211;48.548;2.704;2024-01-27T11:28:35;102696.00;;;18.61;43.11
74680;BME280;63211;48.548;2.704;2024-01-27T11:31:05;102708.09;;;18.66;43.84
74680;BME280;63211;48.548;2.704;2024-01-27T11:33:40;102718.44;;;18.71;44.26
74680;BME280;63211;48.548;2.704;2024-01-27T11:36:07;102698.13;;;18.73;43.53
74680;BME280;63211;48.548;2.704;2024-01-27T11:38:34;102698.97;;;18.74;44.70
74680;BME280;63211;48.548;2.704;2024-01-27T11:41:01;102699.53;;;18.69;48.08
74680;BME280;63211;48.548;2.704;2024-01-27T11:43:28;102695.41;;;18.73;50.17
74680;BME280;63211;48.548;2.704;2024-01-27T11:45:55;102691.03;;;18.64;51.40
74680;BME280;63211;48.548;2.704;2024-01-27T11:48:23;102693.25;;;18.52;52.49
74680;BME280;63211;48.548;2.704;2024-01-27T11:51:05;102688.19;;;18.49;52.04
74680;BME280;63211;48.548;2.704;2024-01-27T11:53:33;102694.69;;;18.48;52.26
74680;BME280;63211;48.548;2.704;2024-01-27T11:55:59;102682.59;;;18.43;52.64
74680;BME280;63211;48.548;2.704;2024-01-27T11:58:27;102680.91;;;18.34;52.80
74680;BME280;63211;48.548;2.704;2024-01-27T12:00:53;102686.34;;;18.42;52.88
74680;BME280;63211;48.548;2.704;2024-01-27T12:03:20;102678.16;;;18.42;53.39
74680;BME280;63211;48.548;2.704;2024-01-27T12:05:47;102675.63;;;18.40;53.41
74680;BME280;63211;48.548;2.704;2024-01-27T12:08:16;102655.59;;;18.25;53.44
74680;BME280;63211;48.548;2.704;2024-01-27T12:10:43;102680.03;;;18.41;53.44
74680;BME280;63211;48.548;2.704;2024-01-27T12:13:10;102678.84;;;18.44;54.45
74680;BME280;63211;48.548;2.704;2024-01-27T12:15:36;102676.47;;;18.41;53.93
74680;BME280;63211;48.548;2.704;2024-01-27T12:18:04;102671.84;;;18.41;54.10
74680;BME280;63211;48.548;2.704;2024-01-27T12:20:32;102661.97;;;18.40;54.33
74680;BME280;63211;48.548;2.704;2024-01-27T12:23:04;102648.06;;;18.27;54.96
74680;BME280;63211;48.548;2.704;2024-01-27T12:25:33;102652.97;;;18.32;54.60
74680;BME280;63211;48.548;2.704;2024-01-27T12:28:02;102646.84;;;18.30;54.94
74680;BME280;63211;48.548;2.704;2024-01-27T12:30:29;102625.44;;;18.18;55.22
74680;BME280;63211;48.548;2.704;2024-01-27T12:32:57;102650.06;;;18.33;55.26
74680;BME280;63211;48.548;2.704;2024-01-27T12:35:25;102636.63;;;18.32;55.79
74680;BME280;63211;48.548;2.704;2024-01-27T12:37:52;102635.59;;;18.33;55.93
74680;BME280;63211;48.548;2.704;2024-01-27T12:40:20;102631.84;;;18.34;56.01
74680;BME280;63211;48.548;2.704;2024-01-27T12:42:48;102626.38;;;18.34;55.67
74680;BME280;63211;48.548;2.704;2024-01-27T12:45:15;102628.94;;;18.35;55.75
74680;BME280;63211;48.548;2.704;2024-01-27T12:47:42;102634.53;;;18.42;53.96
74680;BME280;63211;48.548;2.704;2024-01-27T12:50:09;102634.09;;;18.53;53.17